createdAt,value
2018-11-25T00:00:59.957Z,138.17
2018-11-25T00:03:01.943Z,134.17
2018-11-25T00:05:04.774Z,150.63
2018-11-25T00:07:06.754Z,132.00
2018-11-25T00:09:09.429Z,136.97
2018-11-25T00:11:11.426Z,159.83
2018-11-25T00:13:13.414Z,147.47
2018-11-25T00:15:15.398Z,152.03
2018-11-25T00:17:17.369Z,166.47
2018-11-25T00:19:19.349Z,161.87
2018-11-25T00:21:21.343Z,146.43
2018-11-25T00:23:23.321Z,150.27
2018-11-25T00:25:25.315Z,146.67
2018-11-25T00:27:27.306Z,157.73
2018-11-25T00:29:29.294Z,150.73
2018-11-25T00:31:31.265Z,140.33
2018-11-25T00:33:33.258Z,144.60
2018-11-25T00:35:35.245Z,154.27
2018-11-25T00:37:37.231Z,146.53
2018-11-25T00:39:39.219Z,127.40
2018-11-25T00:41:41.215Z,132.40
2018-11-25T00:43:43.206Z,144.23
2018-11-25T00:45:45.198Z,141.53
2018-11-25T00:47:47.949Z,147.83
2018-11-25T00:49:49.926Z,122.43
2018-11-25T00:51:51.893Z,130.53
2018-11-25T00:53:53.890Z,125.73
2018-11-25T00:55:55.884Z,147.23
2018-11-25T00:57:57.862Z,123.87
2018-11-25T00:59:59.850Z,130.87
2018-11-25T01:02:01.834Z,137.20
2018-11-25T01:04:03.945Z,143.40
2018-11-25T01:06:05.950Z,132.90
2018-11-25T01:08:07.953Z,131.93
2018-11-25T01:10:13.793Z,121.57
2018-11-25T01:12:15.769Z,146.27
2018-11-25T01:14:17.767Z,135.57
2018-11-25T01:16:19.786Z,127.47
2018-11-25T01:18:21.778Z,133.67
2018-11-25T01:20:23.762Z,137.63
2018-11-25T01:22:25.742Z,133.90
2018-11-25T01:24:27.713Z,129.87
2018-11-25T01:26:29.689Z,140.50
2018-11-25T01:28:31.673Z,136.17
2018-11-25T01:30:33.662Z,128.23
2018-11-25T01:32:35.638Z,118.53
2018-11-25T01:34:37.613Z,135.67
2018-11-25T01:36:39.593Z,147.77
2018-11-25T01:38:41.596Z,132.70
2018-11-25T01:40:43.569Z,130.13
2018-11-25T01:42:45.549Z,125.97
2018-11-25T01:44:47.530Z,141.77
2018-11-25T01:46:49.497Z,127.03
2018-11-25T01:48:51.492Z,137.73
2018-11-25T01:50:53.483Z,123.77
2018-11-25T01:52:55.462Z,121.63
2018-11-25T01:54:57.444Z,126.10
2018-11-25T01:56:59.415Z,132.37
2018-11-25T01:59:01.402Z,122.23
2018-11-25T02:01:03.595Z,130.43
2018-11-25T02:03:05.585Z,132.07
2018-11-25T02:05:07.569Z,133.93
2018-11-25T02:07:09.549Z,136.60
2018-11-25T02:09:11.538Z,140.67
2018-11-25T02:11:13.547Z,142.53
2018-11-25T02:13:15.601Z,135.03
2018-11-25T02:15:17.617Z,138.93
2018-11-25T02:17:19.597Z,142.43
2018-11-25T02:19:21.582Z,132.27
2018-11-25T02:21:23.565Z,134.30
2018-11-25T02:23:25.550Z,133.97
2018-11-25T02:25:27.541Z,115.87
2018-11-25T02:27:29.534Z,133.07
2018-11-25T02:29:31.525Z,133.60
2018-11-25T02:31:33.505Z,145.57
2018-11-25T02:33:35.510Z,142.63
2018-11-25T02:35:37.482Z,127.93
2018-11-25T02:37:39.440Z,119.30
2018-11-25T02:39:41.421Z,122.97
2018-11-25T02:41:43.389Z,134.07
2018-11-25T02:43:45.369Z,119.30
2018-11-25T02:45:47.361Z,139.20
2018-11-25T02:47:49.363Z,122.13
2018-11-25T02:49:51.343Z,121.93
2018-11-25T02:51:53.321Z,122.90
2018-11-25T02:53:55.319Z,124.80
2018-11-25T02:55:57.294Z,127.27
2018-11-25T02:57:59.277Z,129.10
2018-11-25T03:00:01.241Z,135.47
2018-11-25T03:02:03.686Z,129.50
2018-11-25T03:04:05.666Z,123.43
2018-11-25T03:06:07.657Z,123.37
2018-11-25T03:08:09.641Z,133.03
2018-11-25T03:10:11.646Z,125.60
2018-11-25T03:12:13.629Z,119.97
2018-11-25T03:14:15.617Z,122.03
2018-11-25T03:16:17.598Z,122.60
2018-11-25T03:18:19.578Z,128.13
2018-11-25T03:20:21.562Z,124.40
2018-11-25T03:22:23.546Z,102.23
2018-11-25T03:24:25.537Z,102.43
2018-11-25T03:26:27.516Z,100.87
2018-11-25T03:28:29.509Z,102.15
2018-11-25T03:30:31.503Z,95.73
2018-11-25T03:32:33.482Z,99.70
2018-11-25T03:34:35.474Z,107.70
2018-11-25T03:36:37.452Z,87.10
2018-11-25T03:38:39.439Z,81.63
2018-11-25T03:40:41.422Z,80.40
2018-11-25T03:42:43.451Z,70.47
2018-11-25T03:44:45.449Z,75.20
2018-11-25T03:46:47.442Z,80.77
2018-11-25T03:48:49.429Z,76.37
2018-11-25T03:50:51.417Z,71.27
2018-11-25T03:52:53.405Z,74.53
2018-11-25T03:54:55.401Z,75.13
2018-11-25T03:56:57.369Z,70.43
2018-11-25T03:58:59.341Z,73.00
2018-11-25T04:01:01.321Z,67.90
2018-11-25T04:03:03.293Z,81.47
2018-11-25T04:05:06.899Z,75.87
2018-11-25T04:07:08.878Z,65.53
2018-11-25T04:09:10.865Z,68.23
2018-11-25T04:11:12.853Z,66.60
2018-11-25T04:13:14.830Z,66.20
2018-11-25T04:15:17.604Z,69.10
2018-11-25T04:17:19.585Z,63.63
2018-11-25T04:19:21.577Z,72.53
2018-11-25T04:21:23.565Z,56.30
2018-11-25T04:23:25.541Z,63.83
2018-11-25T04:25:27.534Z,59.50
2018-11-25T04:27:29.923Z,70.50
2018-11-25T04:29:31.734Z,76.43
2018-11-25T04:31:33.731Z,67.47
2018-11-25T04:33:35.765Z,66.43
2018-11-25T04:35:37.754Z,66.20
2018-11-25T04:37:39.736Z,68.53
2018-11-25T04:39:41.765Z,61.40
2018-11-25T04:41:43.747Z,64.60
2018-11-25T04:43:45.771Z,61.13
2018-11-25T04:45:47.766Z,66.77
2018-11-25T04:47:49.749Z,61.23
2018-11-25T04:49:51.725Z,66.67
2018-11-25T04:51:53.717Z,65.50
2018-11-25T04:53:55.702Z,69.90
2018-11-25T04:55:58.565Z,61.90
2018-11-25T04:58:00.542Z,63.43
2018-11-25T05:00:02.531Z,60.73
2018-11-25T05:02:04.562Z,58.13
2018-11-25T05:04:06.529Z,64.67
2018-11-25T05:06:08.517Z,59.70
2018-11-25T05:08:10.506Z,50.77
2018-11-25T05:10:13.357Z,55.20
2018-11-25T05:12:15.353Z,57.33
2018-11-25T05:14:17.342Z,60.00
2018-11-25T05:16:19.346Z,55.90
2018-11-25T05:18:21.320Z,49.43
2018-11-25T05:20:23.305Z,54.73
2018-11-25T05:22:25.315Z,52.03
2018-11-25T05:24:27.341Z,61.50
2018-11-25T05:26:29.345Z,58.53
2018-11-25T05:28:31.327Z,49.40
2018-11-25T05:30:33.301Z,53.70
2018-11-25T05:32:35.273Z,55.63
2018-11-25T05:34:37.277Z,58.23
2018-11-25T05:36:39.278Z,56.57
2018-11-25T05:38:41.254Z,58.20
2018-11-25T05:40:43.233Z,59.60
2018-11-25T05:42:45.233Z,49.67
2018-11-25T05:44:47.217Z,50.97
2018-11-25T05:46:49.200Z,52.47
2018-11-25T05:48:51.177Z,56.57
2018-11-25T05:50:53.774Z,65.83
2018-11-25T05:52:55.768Z,53.43
2018-11-25T05:54:57.752Z,58.43
2018-11-25T05:56:59.746Z,55.10
2018-11-25T05:59:01.737Z,52.50
2018-11-25T06:01:03.958Z,49.97
2018-11-25T06:03:05.930Z,57.73
2018-11-25T06:05:07.986Z,46.60
2018-11-25T06:07:09.969Z,52.53
2018-11-25T06:09:11.950Z,51.47
2018-11-25T06:11:13.934Z,52.37
2018-11-25T06:13:15.918Z,52.53
2018-11-25T06:15:17.893Z,66.73
2018-11-25T06:17:19.888Z,56.60
2018-11-25T06:19:21.878Z,51.30
2018-11-25T06:21:23.861Z,52.37
2018-11-25T06:23:25.857Z,58.20
2018-11-25T06:25:27.862Z,57.40
2018-11-25T06:27:30.514Z,52.30
2018-11-25T06:29:31.837Z,48.60
2018-11-25T06:31:33.821Z,48.57
2018-11-25T06:33:35.797Z,50.70
2018-11-25T06:35:37.761Z,46.73
2018-11-25T06:37:39.741Z,58.40
2018-11-25T06:39:41.709Z,55.50
2018-11-25T06:41:43.693Z,55.97
2018-11-25T06:43:45.697Z,50.90
2018-11-25T06:45:47.673Z,55.00
2018-11-25T06:47:49.667Z,53.10
2018-11-25T06:49:51.645Z,54.77
2018-11-25T06:51:53.634Z,55.93
2018-11-25T06:53:55.621Z,52.83
2018-11-25T06:55:57.610Z,53.80
2018-11-25T06:57:59.608Z,50.77
2018-11-25T07:00:01.591Z,55.70
2018-11-25T07:02:03.591Z,64.90
2018-11-25T07:04:05.594Z,62.93
2018-11-25T07:06:07.570Z,53.73
2018-11-25T07:08:09.554Z,57.93
2018-11-25T07:10:13.625Z,56.40
2018-11-25T07:12:15.593Z,56.50
2018-11-25T07:14:17.584Z,59.63
2018-11-25T07:16:19.574Z,56.87
2018-11-25T07:18:21.558Z,57.30
2018-11-25T07:20:23.541Z,49.40
2018-11-25T07:22:25.523Z,55.60
2018-11-25T07:24:27.749Z,55.70
2018-11-25T07:26:29.740Z,54.13
2018-11-25T07:28:31.729Z,58.57
2018-11-25T07:30:33.713Z,50.37
2018-11-25T07:32:35.690Z,56.93
2018-11-25T07:34:37.686Z,65.67
2018-11-25T07:36:39.677Z,60.10
2018-11-25T07:38:41.649Z,64.53
2018-11-25T07:40:43.654Z,68.27
2018-11-25T07:42:45.674Z,60.30
2018-11-25T07:44:47.657Z,62.77
2018-11-25T07:46:49.637Z,68.30
2018-11-25T07:48:51.621Z,74.00
2018-11-25T07:50:53.593Z,67.33
2018-11-25T07:52:55.573Z,58.97
2018-11-25T07:54:57.558Z,62.67
2018-11-25T07:56:59.585Z,68.87
2018-11-25T07:59:01.573Z,56.50
2018-11-25T08:01:03.545Z,59.80
2018-11-25T08:03:05.526Z,55.00
2018-11-25T08:05:08.557Z,68.30
2018-11-25T08:07:10.540Z,59.90
2018-11-25T08:09:12.533Z,57.40
2018-11-25T08:11:14.519Z,63.53
2018-11-25T08:13:16.522Z,56.27
2018-11-25T08:15:18.841Z,115.83
2018-11-25T08:17:20.824Z,79.50
2018-11-25T08:19:22.817Z,63.03
2018-11-25T08:21:24.797Z,66.77
2018-11-25T08:23:26.777Z,68.93
2018-11-25T08:25:28.781Z,79.90
2018-11-25T08:27:30.761Z,82.97
2018-11-25T08:29:32.769Z,80.07
2018-11-25T08:31:34.746Z,81.03
2018-11-25T08:33:36.742Z,72.77
2018-11-25T08:35:38.722Z,74.97
2018-11-25T08:37:40.685Z,73.47
2018-11-25T08:39:42.666Z,66.30
2018-11-25T08:41:44.646Z,78.27
2018-11-25T08:43:46.625Z,68.00
2018-11-25T08:45:48.597Z,70.47
2018-11-25T08:47:50.633Z,83.60
2018-11-25T08:49:52.569Z,68.00
2018-11-25T08:51:54.554Z,70.43
2018-11-25T08:53:56.549Z,71.13
2018-11-25T08:55:58.540Z,86.10
2018-11-25T08:58:00.554Z,66.43
2018-11-25T09:00:02.570Z,87.57
2018-11-25T09:02:05.045Z,78.17
2018-11-25T09:04:07.017Z,75.67
2018-11-25T09:06:08.997Z,85.43
2018-11-25T09:08:10.980Z,80.40
2018-11-25T09:10:14.906Z,70.63
2018-11-25T09:12:16.889Z,79.93
2018-11-25T09:14:18.873Z,76.70
2018-11-25T09:16:20.853Z,73.60
2018-11-25T09:18:22.829Z,74.50
2018-11-25T09:20:24.817Z,81.63
2018-11-25T09:22:26.801Z,72.20
2018-11-25T09:24:28.789Z,92.17
2018-11-25T09:26:30.775Z,91.30
2018-11-25T09:28:32.753Z,81.23
2018-11-25T09:30:34.744Z,90.70
2018-11-25T09:32:36.726Z,96.50
2018-11-25T09:34:38.713Z,78.63
2018-11-25T09:36:40.690Z,129.27
2018-11-25T09:38:42.670Z,82.70
2018-11-25T09:40:44.841Z,122.00
2018-11-25T09:42:46.685Z,141.67
2018-11-25T09:44:48.665Z,102.03
2018-11-25T09:46:50.621Z,90.20
2018-11-25T09:48:52.601Z,95.00
2018-11-25T09:50:54.591Z,110.27
2018-11-25T09:52:56.593Z,112.90
2018-11-25T09:54:58.581Z,101.57
2018-11-25T09:57:00.569Z,103.20
2018-11-25T09:59:02.574Z,101.57
2018-11-25T10:01:05.349Z,98.63
2018-11-25T10:03:07.356Z,97.50
2018-11-25T10:05:09.573Z,102.07
2018-11-25T10:07:11.560Z,87.67
2018-11-25T10:09:13.553Z,93.87
2018-11-25T10:11:15.540Z,88.07
2018-11-25T10:13:17.546Z,92.47
2018-11-25T10:15:20.694Z,76.50
2018-11-25T10:17:22.683Z,91.57
2018-11-25T10:19:24.675Z,97.73
2018-11-25T10:21:26.661Z,96.30
2018-11-25T10:23:28.641Z,103.33
2018-11-25T10:25:30.634Z,96.73
2018-11-25T10:27:32.619Z,98.07
2018-11-25T10:29:34.631Z,98.53
2018-11-25T10:31:36.617Z,101.93
2018-11-25T10:33:38.581Z,140.60
2018-11-25T10:35:40.568Z,102.67
2018-11-25T10:37:42.545Z,79.53
2018-11-25T10:39:44.521Z,101.40
2018-11-25T10:41:46.514Z,89.87
2018-11-25T10:43:48.493Z,106.73
2018-11-25T10:45:50.474Z,85.83
2018-11-25T10:47:52.745Z,83.27
2018-11-25T10:49:54.718Z,95.70
2018-11-25T10:51:56.701Z,111.77
2018-11-25T10:53:58.686Z,116.97
2018-11-25T10:56:00.682Z,97.53
2018-11-25T10:58:02.661Z,101.97
2018-11-25T11:00:46.098Z,100.17
2018-11-25T11:02:52.710Z,102.77
2018-11-25T11:05:00.562Z,109.57
2018-11-25T11:07:08.422Z,106.87
2018-11-25T11:09:10.398Z,107.47
2018-11-25T11:11:12.417Z,109.67
2018-11-25T11:13:14.394Z,116.90
2018-11-25T11:15:16.371Z,99.27
2018-11-25T11:17:18.365Z,103.57
2018-11-25T11:19:20.353Z,92.70
2018-11-25T11:21:22.335Z,103.47
2018-11-25T11:23:24.321Z,91.40
2018-11-25T11:25:26.302Z,106.13
2018-11-25T11:27:28.297Z,93.03
2018-11-25T11:29:30.286Z,94.57
2018-11-25T11:31:32.257Z,84.80
2018-11-25T11:33:34.250Z,109.03
2018-11-25T11:35:36.241Z,86.17
2018-11-25T11:37:38.221Z,100.90
2018-11-25T11:39:40.194Z,86.13
2018-11-25T11:41:42.181Z,77.90
2018-11-25T11:43:44.166Z,91.40
2018-11-25T11:45:46.141Z,91.90
2018-11-25T11:47:48.123Z,94.00
2018-11-25T11:49:50.166Z,92.77
2018-11-25T11:51:52.152Z,103.00
2018-11-25T11:53:54.129Z,88.70
2018-11-25T11:55:56.106Z,104.00
2018-11-25T11:57:58.925Z,105.17
2018-11-25T12:00:00.909Z,116.00
2018-11-25T12:02:02.892Z,100.53
2018-11-25T12:04:04.930Z,111.17
2018-11-25T12:06:06.905Z,107.97
2018-11-25T12:08:08.900Z,102.10
2018-11-25T12:10:12.641Z,108.20
2018-11-25T12:12:14.629Z,110.07
2018-11-25T12:14:16.614Z,113.73
2018-11-25T12:16:18.609Z,119.40
2018-11-25T12:18:20.590Z,118.37
2018-11-25T12:20:23.254Z,130.33
2018-11-25T12:22:25.233Z,120.00
2018-11-25T12:24:27.214Z,120.67
2018-11-25T12:26:29.197Z,122.17
2018-11-25T12:28:31.173Z,119.13
2018-11-25T12:30:33.153Z,112.70
2018-11-25T12:32:35.134Z,136.27
2018-11-25T12:34:37.122Z,138.80
2018-11-25T12:36:39.114Z,121.57
2018-11-25T12:38:41.089Z,129.70
2018-11-25T12:40:43.066Z,128.07
2018-11-25T12:42:47.069Z,125.67
2018-11-25T12:44:49.041Z,112.77
2018-11-25T12:46:51.035Z,137.03
2018-11-25T12:48:52.997Z,134.60
2018-11-25T12:50:54.977Z,143.13
2018-11-25T12:52:57.054Z,131.67
2018-11-25T12:54:59.030Z,143.03
2018-11-25T12:57:01.017Z,145.30
2018-11-25T12:59:02.998Z,152.00
2018-11-25T13:01:04.989Z,121.27
2018-11-25T13:03:08.394Z,134.13
2018-11-25T13:05:10.373Z,125.60
2018-11-25T13:07:12.354Z,155.57
2018-11-25T13:09:14.342Z,165.27
2018-11-25T13:11:16.322Z,145.40
2018-11-25T13:13:18.314Z,135.80
2018-11-25T13:15:20.286Z,161.13
2018-11-25T13:17:22.283Z,147.33
2018-11-25T13:19:24.257Z,146.20
2018-11-25T13:21:26.233Z,158.07
2018-11-25T13:23:28.218Z,161.67
2018-11-25T13:25:30.198Z,165.50
2018-11-25T13:27:32.248Z,160.73
2018-11-25T13:29:34.238Z,176.50
2018-11-25T13:31:36.434Z,179.63
2018-11-25T13:33:38.426Z,160.43
2018-11-25T13:35:40.406Z,179.73
2018-11-25T13:37:42.401Z,182.20
2018-11-25T13:39:44.382Z,192.57
2018-11-25T13:41:46.357Z,185.27
2018-11-25T13:43:48.337Z,171.83
2018-11-25T13:45:50.322Z,211.80
2018-11-25T13:47:52.298Z,186.23
2018-11-25T13:49:54.277Z,232.03
2018-11-25T13:51:56.249Z,213.23
2018-11-25T13:53:58.735Z,202.80
2018-11-25T13:56:00.693Z,226.80
2018-11-25T13:58:02.679Z,216.37
2018-11-25T14:00:12.865Z,188.83
2018-11-25T14:02:14.850Z,202.17
2018-11-25T14:04:16.841Z,244.77
2018-11-25T14:06:18.821Z,246.03
2018-11-25T14:08:20.801Z,199.17
2018-11-25T14:10:26.749Z,245.17
2018-11-25T14:12:28.733Z,198.27
2018-11-25T14:14:30.722Z,208.87
2018-11-25T14:16:32.714Z,257.70
2018-11-25T14:18:34.976Z,233.73
2018-11-25T14:20:37.037Z,228.30
2018-11-25T14:22:39.027Z,216.17
2018-11-25T14:24:41.034Z,217.23
2018-11-25T14:26:50.613Z,241.90
2018-11-25T14:28:52.627Z,225.40
2018-11-25T14:30:54.617Z,212.07
2018-11-25T14:32:56.605Z,219.37
2018-11-25T14:34:58.571Z,225.00
2018-11-25T14:37:00.556Z,213.17
2018-11-25T14:39:02.654Z,213.27
2018-11-25T14:41:04.649Z,199.33
2018-11-25T14:43:06.918Z,213.67
2018-11-25T14:45:12.040Z,210.03
2018-11-25T14:47:14.037Z,191.83
2018-11-25T14:49:16.030Z,197.83
2018-11-25T14:51:18.005Z,220.17
2018-11-25T14:53:20.000Z,204.53
2018-11-25T14:55:21.979Z,217.33
2018-11-25T14:57:23.961Z,211.83
2018-11-25T14:59:25.950Z,213.23
2018-11-25T15:01:27.921Z,192.40
2018-11-25T15:03:29.902Z,215.37
2018-11-25T15:05:35.810Z,197.67
2018-11-25T15:07:37.793Z,202.37
2018-11-25T15:09:39.782Z,189.20
2018-11-25T15:11:41.769Z,210.60
2018-11-25T15:13:43.753Z,187.70
2018-11-25T15:15:45.751Z,208.23
2018-11-25T15:17:47.733Z,229.60
2018-11-25T15:19:49.718Z,196.90
2018-11-25T15:21:51.694Z,279.33
2018-11-25T15:23:54.155Z,258.87
2018-11-25T15:25:56.128Z,177.43
2018-11-25T15:27:58.367Z,183.10
2018-11-25T15:30:00.122Z,206.97
2018-11-25T15:32:02.110Z,200.13
2018-11-25T15:34:04.177Z,194.10
2018-11-25T15:36:06.177Z,169.93
2018-11-25T15:38:08.157Z,187.70
2018-11-25T15:40:12.005Z,171.27
2018-11-25T15:42:13.978Z,166.73
2018-11-25T15:44:15.965Z,164.33
2018-11-25T15:46:17.942Z,181.93
2018-11-25T15:48:22.593Z,179.53
2018-11-25T15:50:25.877Z,162.73
2018-11-25T15:52:27.859Z,165.70
2018-11-25T15:54:29.868Z,160.77
2018-11-25T15:56:31.956Z,160.07
2018-11-25T15:58:33.874Z,181.27
2018-11-25T16:00:35.869Z,157.27
2018-11-25T16:02:38.899Z,186.77
2018-11-25T16:04:39.845Z,169.03
2018-11-25T16:06:42.621Z,178.37
2018-11-25T16:08:44.561Z,195.07
2018-11-25T16:10:46.549Z,164.03
2018-11-25T16:12:49.265Z,165.20
2018-11-25T16:14:51.261Z,162.17
2018-11-25T16:16:53.386Z,186.03
2018-11-25T16:18:55.382Z,185.47
2018-11-25T16:20:57.377Z,176.10
2018-11-25T16:23:03.977Z,160.17
2018-11-25T16:25:11.064Z,160.67
2018-11-25T16:27:13.051Z,171.13
2018-11-25T16:29:18.459Z,158.77
2018-11-25T16:31:20.449Z,177.27
2018-11-25T16:33:22.437Z,171.07
2018-11-25T16:35:24.422Z,179.40
2018-11-25T16:37:26.406Z,163.77
2018-11-25T16:39:28.394Z,176.77
2018-11-25T16:41:30.381Z,183.27
2018-11-25T16:43:32.361Z,158.43
2018-11-25T16:45:34.355Z,181.67
2018-11-25T16:47:36.342Z,172.47
2018-11-25T16:49:38.331Z,205.17
2018-11-25T16:51:40.313Z,188.70
2018-11-25T16:53:42.297Z,208.07
2018-11-25T16:55:44.273Z,216.67
2018-11-25T16:57:46.254Z,201.10
2018-11-25T16:59:48.241Z,199.07
2018-11-25T17:01:50.221Z,171.00
2018-11-25T17:03:52.231Z,189.60
2018-11-25T17:05:54.742Z,188.30
2018-11-25T17:07:59.042Z,188.83
2018-11-25T17:10:00.977Z,221.43
2018-11-25T17:12:02.979Z,209.70
2018-11-25T17:14:05.548Z,217.30
2018-11-25T17:16:08.020Z,207.33
2018-11-25T17:18:10.013Z,196.10
2018-11-25T17:20:12.018Z,212.60
2018-11-25T17:22:16.535Z,201.13
2018-11-25T17:24:15.989Z,186.97
2018-11-25T17:26:17.978Z,203.73
2018-11-25T17:28:19.964Z,208.00
2018-11-25T17:30:21.941Z,215.53
2018-11-25T17:32:23.995Z,198.90
2018-11-25T17:34:25.927Z,197.27
2018-11-25T17:36:27.917Z,217.47
2018-11-25T17:38:29.897Z,190.93
2018-11-25T17:40:31.956Z,191.93
2018-11-25T17:42:33.879Z,217.80
2018-11-25T17:44:35.857Z,190.53
2018-11-25T17:46:37.841Z,202.60
2018-11-25T17:48:39.818Z,232.70
2018-11-25T17:50:41.810Z,222.37
2018-11-25T17:52:44.302Z,232.07
2018-11-25T17:54:46.274Z,231.10
2018-11-25T17:56:48.265Z,240.43
2018-11-25T17:58:50.245Z,223.67
2018-11-25T18:00:55.999Z,244.47
2018-11-25T18:02:57.998Z,278.17
2018-11-25T18:04:59.990Z,236.80
2018-11-25T18:07:02.045Z,264.27
2018-11-25T18:09:08.526Z,235.17
2018-11-25T18:11:10.537Z,255.23
2018-11-25T18:13:12.933Z,236.97
2018-11-25T18:15:16.613Z,231.37
2018-11-25T18:17:18.627Z,235.27
2018-11-25T18:19:21.962Z,266.47
2018-11-25T18:21:25.116Z,269.73
2018-11-25T18:23:27.109Z,249.73
2018-11-25T18:25:29.112Z,258.97
2018-11-25T18:27:31.119Z,271.83
2018-11-25T18:29:33.125Z,221.90
2018-11-25T18:31:35.146Z,276.53
2018-11-25T18:33:37.238Z,266.90
2018-11-25T18:35:39.251Z,259.30
2018-11-25T18:37:41.236Z,272.00
2018-11-25T18:39:43.234Z,257.40
2018-11-25T18:41:45.291Z,235.90
2018-11-25T18:43:47.282Z,257.93
2018-11-25T18:45:49.329Z,254.37
2018-11-25T18:47:51.334Z,234.10
2018-11-25T18:49:53.432Z,229.40
2018-11-25T18:51:55.485Z,245.07
2018-11-25T18:53:57.474Z,251.53
2018-11-25T18:55:59.524Z,275.97
2018-11-25T18:58:01.532Z,248.23
2018-11-25T19:00:09.730Z,237.27
2018-11-25T19:02:19.625Z,236.83
2018-11-25T19:04:21.613Z,240.47
2018-11-25T19:06:23.625Z,214.37
2018-11-25T19:08:25.621Z,216.23
2018-11-25T19:10:27.625Z,213.57
2018-11-25T19:12:29.669Z,246.80
2018-11-25T19:14:31.674Z,229.50
2018-11-25T19:16:33.698Z,219.20
2018-11-25T19:18:35.717Z,198.73
2018-11-25T19:20:37.922Z,201.93
2018-11-25T19:22:40.289Z,193.53
2018-11-25T19:24:42.281Z,195.17
2018-11-25T19:26:44.325Z,156.63
2018-11-25T19:28:46.337Z,170.80
2018-11-25T19:30:48.377Z,185.93
2018-11-25T19:32:50.418Z,165.57
2018-11-25T19:34:52.457Z,184.87
2018-11-25T19:36:54.461Z,167.83
2018-11-25T19:38:56.595Z,172.43
2018-11-25T19:40:58.630Z,188.57
2018-11-25T19:43:00.628Z,215.77
2018-11-25T19:45:02.671Z,177.10
2018-11-25T19:47:05.132Z,187.03
2018-11-25T19:49:07.152Z,162.73
2018-11-25T19:51:17.020Z,182.23
2018-11-25T19:53:11.150Z,183.97
2018-11-25T19:55:13.139Z,188.77
2018-11-25T19:57:15.130Z,183.57
2018-11-25T19:59:17.145Z,183.97
2018-11-25T20:01:19.122Z,169.70
2018-11-25T20:03:21.118Z,176.83
2018-11-25T20:05:23.118Z,201.53
2018-11-25T20:07:25.114Z,200.07
2018-11-25T20:09:30.262Z,212.70
2018-11-25T20:11:32.289Z,185.77
2018-11-25T20:13:34.320Z,191.30
2018-11-25T20:15:36.719Z,187.17
2018-11-25T20:17:38.732Z,207.80
2018-11-25T20:19:40.754Z,213.33
2018-11-25T20:21:48.542Z,197.87
2018-11-25T20:23:50.549Z,193.57
2018-11-25T20:25:52.549Z,210.87
2018-11-25T20:27:55.569Z,209.03
2018-11-25T20:29:57.549Z,201.63
2018-11-25T20:32:05.350Z,212.80
2018-11-25T20:34:07.341Z,218.03
2018-11-25T20:36:09.354Z,191.10
2018-11-25T20:38:17.135Z,194.90
2018-11-25T20:40:19.129Z,181.13
2018-11-25T20:42:21.123Z,204.60
2018-11-25T20:44:23.118Z,191.43
2018-11-25T20:46:30.799Z,203.00
2018-11-25T20:48:32.814Z,190.80
2018-11-25T20:50:34.807Z,205.67
2018-11-25T20:52:42.473Z,232.93
2018-11-25T20:54:44.470Z,222.60
2018-11-25T20:56:46.454Z,219.30
2018-11-25T20:58:48.441Z,213.20
2018-11-25T21:00:50.444Z,256.17
2018-11-25T21:02:52.427Z,237.40
2018-11-25T21:04:54.417Z,233.90
2018-11-25T21:06:56.396Z,274.13
2018-11-25T21:08:58.385Z,270.77
2018-11-25T21:11:00.358Z,255.40
2018-11-25T21:13:02.350Z,251.67
2018-11-25T21:15:05.606Z,247.13
2018-11-25T21:17:07.590Z,216.17
2018-11-25T21:19:09.590Z,239.27
2018-11-25T21:21:11.563Z,286.07
2018-11-25T21:23:13.546Z,239.80
2018-11-25T21:25:17.558Z,243.97
2018-11-25T21:27:19.530Z,234.10
2018-11-25T21:29:21.525Z,240.00
2018-11-25T21:31:23.510Z,253.30
2018-11-25T21:33:25.489Z,201.83
2018-11-25T21:35:27.480Z,216.90
2018-11-25T21:37:29.462Z,194.90
2018-11-25T21:39:31.502Z,224.80
2018-11-25T21:41:33.493Z,249.20
2018-11-25T21:43:35.474Z,227.17
2018-11-25T21:45:37.445Z,207.63
2018-11-25T21:47:39.441Z,218.60
2018-11-25T21:49:41.415Z,215.63
2018-11-25T21:51:43.406Z,210.97
2018-11-25T21:53:45.387Z,185.67
2018-11-25T21:55:47.377Z,259.87
2018-11-25T21:57:49.369Z,243.10
2018-11-25T21:59:51.474Z,216.20
2018-11-25T22:01:53.497Z,207.80
2018-11-25T22:03:55.478Z,223.33
2018-11-25T22:05:57.477Z,223.07
2018-11-25T22:07:59.453Z,263.10
2018-11-25T22:10:01.566Z,229.07
2018-11-25T22:12:03.761Z,217.37
2018-11-25T22:14:05.752Z,240.67
2018-11-25T22:16:07.738Z,202.10
2018-11-25T22:18:09.714Z,221.60
2018-11-25T22:20:12.544Z,238.43
2018-11-25T22:22:14.525Z,235.70
2018-11-25T22:24:16.505Z,213.37
2018-11-25T22:26:18.489Z,191.57
2018-11-25T22:28:20.459Z,217.27
2018-11-25T22:30:23.409Z,221.30
2018-11-25T22:32:25.398Z,220.07
2018-11-25T22:34:27.406Z,191.50
2018-11-25T22:36:29.401Z,213.33
2018-11-25T22:38:31.389Z,206.83
2018-11-25T22:40:33.377Z,236.47
2018-11-25T22:42:35.566Z,224.77
2018-11-25T22:44:37.558Z,187.63
2018-11-25T22:46:39.545Z,207.67
2018-11-25T22:48:41.527Z,208.57
2018-11-25T22:50:43.501Z,183.07
2018-11-25T22:52:45.525Z,199.73
2018-11-25T22:54:47.497Z,199.63
2018-11-25T22:56:49.541Z,204.40
2018-11-25T22:58:51.527Z,179.70
2018-11-25T23:00:53.583Z,178.30
2018-11-25T23:02:55.585Z,194.50
2018-11-25T23:05:09.158Z,207.90
2018-11-25T23:07:11.141Z,183.13
2018-11-25T23:09:13.118Z,209.33
2018-11-25T23:11:15.102Z,188.33
2018-11-25T23:13:17.085Z,195.83
2018-11-25T23:15:19.074Z,170.73
2018-11-25T23:17:21.055Z,177.70
2018-11-25T23:19:23.033Z,202.73
2018-11-25T23:21:25.021Z,170.90
2018-11-25T23:23:27.002Z,180.90
2018-11-25T23:25:28.977Z,212.97
2018-11-25T23:27:30.953Z,193.53
2018-11-25T23:29:32.920Z,225.03
2018-11-25T23:31:34.912Z,224.87
2018-11-25T23:33:36.893Z,286.97
2018-11-25T23:35:38.879Z,198.20
2018-11-25T23:37:40.857Z,229.57
2018-11-25T23:39:42.832Z,211.47
2018-11-25T23:41:44.821Z,217.80
2018-11-25T23:43:46.804Z,268.93
2018-11-25T23:45:48.797Z,219.80
2018-11-25T23:47:50.770Z,233.40
2018-11-25T23:49:52.757Z,265.13
2018-11-25T23:51:54.745Z,257.23
2018-11-25T23:53:56.722Z,229.33
2018-11-25T23:55:58.717Z,254.87
2018-11-25T23:58:00.697Z,216.27
